Time;durP1;ratioP1;P1;durP2;ratioP2;P2;SDS_P1;SDS_P2;PMS_P1;PMS_P2;Temp;Humidity;BMP_temperature;BMP_pressure;BME280_temperature;BME280_humidity;BME280_pressure;Samples;Min_cycle;Max_cycle;Signal;HPM_P1;HPM_P2
2023/04/16 00:01:13;;;;;;;0.50;0.50;;;;;;;25.30;35.07;99290.61;1838145;77;28176;-38
2023/04/16 00:04:02;;;;;;;0.50;0.50;;;;;;;25.32;35.05;99280.20;1815138;77;30096;-38
2023/04/16 00:06:50;;;;;;;0.60;0.60;;;;;;;25.30;35.12;99290.61;1852282;77;28317;-38
2023/04/16 00:09:39;;;;;;;0.40;0.40;;;;;;;25.32;35.16;99281.58;1821977;77;28189;-38
2023/04/16 00:12:27;;;;;;;0.70;0.63;;;;;;;25.29;35.15;99281.55;1826120;77;28243;-39
2023/04/16 00:15:16;;;;;;;0.55;0.55;;;;;;;25.30;35.16;99287.86;1808235;77;28271;-38
2023/04/16 00:18:04;;;;;;;0.33;0.33;;;;;;;25.34;35.19;99289.03;1828351;77;28146;-38
2023/04/16 00:20:53;;;;;;;0.80;0.60;;;;;;;25.33;35.19;99292.85;1835755;77;28304;-38
2023/04/16 00:23:42;;;;;;;0.65;0.60;;;;;;;25.33;35.20;99294.23;1810534;78;28285;-38
2023/04/16 00:26:31;;;;;;;0.50;0.50;;;;;;;25.32;35.24;99300.83;1841837;77;28185;-38
2023/04/16 00:29:19;;;;;;;0.57;0.57;;;;;;;25.33;35.25;99298.35;1838256;77;28167;-38
2023/04/16 00:32:08;;;;;;;0.50;0.50;;;;;;;25.35;35.23;99294.80;1825898;77;28235;-38
2023/04/16 00:34:56;;;;;;;0.40;0.40;;;;;;;25.36;35.24;99299.22;1814066;77;28204;-38
2023/04/16 00:37:45;;;;;;;0.50;0.50;;;;;;;25.36;35.27;99297.31;1814791;77;28329;-38
2023/04/16 00:40:33;;;;;;;0.47;0.47;;;;;;;25.36;35.29;99304.19;1831286;76;28276;-38
2023/04/16 00:43:29;;;;;;;0.40;0.40;;;;;;;25.35;35.25;99294.26;1835290;77;28163;-39
2023/04/16 00:46:20;;;;;;;0.57;0.57;;;;;;;25.36;35.24;99299.22;1841261;77;28352;-39
2023/04/16 00:49:09;;;;;;;0.63;0.63;;;;;;;25.37;35.30;99299.48;1841562;77;28276;-38
2023/04/16 00:51:58;;;;;;;1.00;0.60;;;;;;;25.34;35.31;99297.28;1810950;78;28199;-38
2023/04/16 00:54:47;;;;;;;0.50;0.50;;;;;;;25.37;35.31;99303.61;1836098;77;28181;-38
2023/04/16 00:57:35;;;;;;;0.60;0.60;;;;;;;25.38;35.30;99292.91;1825247;77;28150;-38
2023/04/16 01:00:25;;;;;;;0.50;0.50;;;;;;;25.37;35.33;99288.48;1825359;77;28557;-38
2023/04/16 01:03:13;;;;;;;0.40;0.40;;;;;;;25.37;35.29;99288.48;1856678;77;28190;-38
2023/04/16 01:06:02;;;;;;;0.60;0.60;;;;;;;25.38;35.34;99302.54;1834252;77;28275;-38
2023/04/16 01:08:51;;;;;;;0.40;0.40;;;;;;;25.36;35.34;99295.09;1817453;77;28869;-38
2023/04/16 01:11:39;;;;;;;0.90;0.50;;;;;;;25.38;35.30;99299.25;1840876;77;28138;-38
2023/04/16 01:14:28;;;;;;;1.00;0.53;;;;;;;25.36;35.33;99288.22;1837522;77;28146;-38
2023/04/16 01:17:16;;;;;;;0.70;0.40;;;;;;;25.38;35.32;99291.54;1825234;77;28218;-39
2023/04/16 01:20:05;;;;;;;0.50;0.50;;;;;;;25.38;35.32;99295.66;1826070;77;28231;-38
2023/04/16 01:22:54;;;;;;;0.40;0.40;;;;;;;25.36;35.39;99297.84;1828951;77;28226;-38
2023/04/16 01:25:42;;;;;;;0.50;0.50;;;;;;;25.37;35.29;99293.98;1810737;78;28299;-37
2023/04/16 01:28:30;;;;;;;0.50;0.50;;;;;;;25.39;35.29;99296.77;1841083;77;28251;-38
2023/04/16 01:31:18;;;;;;;0.33;0.33;;;;;;;25.40;35.28;99305.32;1841936;77;28721;-38
2023/04/16 01:34:17;;;;;;;0.45;0.42;;;;;;;25.37;35.32;99303.61;1839642;77;28162;-38
2023/04/16 01:37:06;;;;;;;0.50;0.42;;;;;;;25.35;35.41;99307.17;1837058;77;28227;-38
2023/04/16 01:39:55;;;;;;;0.37;0.37;;;;;;;25.34;35.42;99311.02;1822659;77;28300;-38
2023/04/16 01:42:43;;;;;;;0.33;0.33;;;;;;;25.35;35.43;99316.25;1820975;77;28211;-38
2023/04/16 01:45:33;;;;;;;0.35;0.30;;;;;;;25.39;35.34;99316.02;1837685;77;28667;-38
2023/04/16 01:48:21;;;;;;;0.30;0.27;;;;;;;25.38;35.37;99309.41;1837334;77;28225;-38
2023/04/16 01:51:10;;;;;;;0.45;0.45;;;;;;;25.38;35.37;99309.41;1830194;77;28686;-38
2023/04/16 01:53:58;;;;;;;0.40;0.40;;;;;;;25.37;35.39;99306.36;1802215;77;28279;-37
2023/04/16 01:56:47;;;;;;;0.30;0.30;;;;;;;25.38;35.38;99313.53;1831048;77;28222;-38
2023/04/16 01:59:36;;;;;;;0.50;0.50;;;;;;;25.38;35.38;99319.88;1825992;78;28302;-38
2023/04/16 02:02:26;;;;;;;0.80;0.50;;;;;;;25.39;35.38;99319.34;1831308;77;28721;-38
2023/04/16 02:05:15;;;;;;;0.50;0.50;;;;;;;25.39;35.37;99324.84;1829901;77;28134;-38
2023/04/16 02:08:03;;;;;;;0.40;0.40;;;;;;;25.37;35.43;99315.45;1819675;77;28292;-38
2023/04/16 02:10:52;;;;;;;0.40;0.40;;;;;;;25.39;35.38;99326.21;1819837;77;28221;-38
2023/04/16 02:13:40;;;;;;;0.40;0.40;;;;;;;25.40;35.36;99325.11;1813548;77;28179;-38
2023/04/16 02:16:29;;;;;;;0.50;0.50;;;;;;;25.39;35.38;99318.77;1826607;77;28224;-38
2023/04/16 02:19:19;;;;;;;0.28;0.28;;;;;;;25.40;35.41;99319.61;1833162;77;28278;-38
2023/04/16 02:22:07;;;;;;;0.60;0.33;;;;;;;25.39;35.40;99316.02;1831123;77;28164;-38
2023/04/16 02:24:56;;;;;;;0.30;0.30;;;;;;;25.40;35.33;99316.86;1841769;77;28214;-38
2023/04/16 02:27:44;;;;;;;0.47;0.47;;;;;;;25.42;35.37;99327.05;1828236;77;28260;-38
2023/04/16 02:30:39;;;;;;;0.53;0.53;;;;;;;25.41;35.39;99322.66;1835663;77;28306;-37
2023/04/16 02:33:28;;;;;;;0.40;0.40;;;;;;;25.39;35.39;99320.71;1829871;77;28326;-38
2023/04/16 02:36:17;;;;;;;0.30;0.30;;;;;;;25.40;35.40;99319.61;1836263;77;28295;-38
2023/04/16 02:39:07;;;;;;;0.42;0.42;;;;;;;25.38;35.41;99319.03;1827934;77;28290;-38
2023/04/16 02:41:55;;;;;;;0.50;0.50;;;;;;;25.41;35.39;99311.66;1850657;75;28199;-38
2023/04/16 02:44:44;;;;;;;0.50;0.50;;;;;;;25.40;35.36;99319.07;1860251;75;28259;-38
2023/04/16 02:47:32;;;;;;;0.55;0.50;;;;;;;25.40;35.36;99305.32;1860070;75;28218;-38
2023/04/16 02:50:21;;;;;;;0.40;0.40;;;;;;;25.40;35.38;99311.36;1864500;75;28222;-38
2023/04/16 02:53:09;;;;;;;0.70;0.57;;;;;;;25.40;35.40;99303.11;1862686;75;28177;-38
2023/04/16 02:55:57;;;;;;;0.25;0.25;;;;;;;25.40;35.39;99308.07;1860459;75;28320;-39
2023/04/16 02:58:46;;;;;;;0.25;0.25;;;;;;;25.39;35.41;99304.22;1863060;75;27850;-38
2023/04/16 03:01:34;;;;;;;0.28;0.28;;;;;;;25.40;35.39;99305.32;1884228;75;28294;-38
2023/04/16 03:04:23;;;;;;;0.30;0.30;;;;;;;25.41;35.38;99309.72;1884344;75;28140;-38
2023/04/16 03:07:11;;;;;;;0.45;0.45;;;;;;;25.43;35.40;99312.77;1879527;75;28317;-38
2023/04/16 03:10:00;;;;;;;0.40;0.28;;;;;;;25.41;35.35;99307.53;1839709;77;28280;-38
2023/04/16 03:12:48;;;;;;;0.40;0.40;;;;;;;25.41;35.42;99302.03;1857238;77;28271;-38
2023/04/16 03:15:36;;;;;;;0.25;0.25;;;;;;;25.42;35.37;99317.42;1810802;77;28772;-38
2023/04/16 03:18:25;;;;;;;0.50;0.50;;;;;;;25.43;35.37;99304.52;1834562;77;28258;-38
2023/04/16 03:21:14;;;;;;;0.65;0.65;;;;;;;25.41;35.37;99311.66;1830372;77;28249;-38
2023/04/16 03:24:02;;;;;;;0.50;0.35;;;;;;;25.40;35.36;99309.45;1824281;77;28223;-38
2023/04/16 03:26:51;;;;;;;0.40;0.40;;;;;;;25.43;35.36;99300.39;1844985;77;28335;-38
2023/04/16 03:29:40;;;;;;;0.60;0.47;;;;;;;25.40;35.37;99305.32;1831598;77;28252;-38
2023/04/16 03:32:29;;;;;;;0.30;0.30;;;;;;;25.43;35.38;99304.52;1851118;77;28727;-38
2023/04/16 03:35:18;;;;;;;1.82;0.37;;;;;;;25.43;35.42;99299.02;1844628;77;28251;-38
2023/04/16 03:38:06;;;;;;;0.37;0.37;;;;;;;25.42;35.38;99305.05;1840586;77;28281;-38
2023/04/16 03:40:55;;;;;;;0.50;0.50;;;;;;;25.44;35.38;99311.72;1831362;77;28218;-38
2023/04/16 03:43:43;;;;;;;0.40;0.30;;;;;;;25.44;35.40;99313.91;1844511;77;30258;-37
2023/04/16 03:46:32;;;;;;;0.40;0.40;;;;;;;25.43;35.40;99301.23;1813441;78;28753;-38
2023/04/16 03:49:20;;;;;;;0.42;0.42;;;;;;;25.43;35.39;99312.23;1846046;77;28183;-38
2023/04/16 03:52:10;;;;;;;0.50;0.50;;;;;;;25.44;35.37;99304.28;1812177;78;28923;-38
2023/04/16 03:54:58;;;;;;;0.30;0.30;;;;;;;25.45;35.38;99317.49;1852234;77;28240;-38
2023/04/16 03:57:49;;;;;;;0.35;0.35;;;;;;;25.42;35.35;99310.55;1845226;77;28259;-38
2023/04/16 04:00:39;;;;;;;0.40;0.40;;;;;;;25.44;35.37;99309.78;1851576;77;28208;-38
2023/04/16 04:03:28;;;;;;;0.50;0.50;;;;;;;25.44;35.38;99311.16;1829064;77;28300;-38
2023/04/16 04:06:17;;;;;;;0.33;0.33;;;;;;;25.44;35.35;99302.91;1839267;77;28228;-38
2023/04/16 04:09:06;;;;;;;0.37;0.37;;;;;;;25.44;35.35;99298.78;1823123;77;28243;-39
2023/04/16 04:11:54;;;;;;;0.30;0.30;;;;;;;25.45;35.38;99306.48;1836110;77;27852;-38
2023/04/16 04:14:42;;;;;;;0.40;0.40;;;;;;;25.45;35.36;99305.95;1840389;77;28254;-38
2023/04/16 04:17:31;;;;;;;0.40;0.40;;;;;;;25.43;35.36;99310.85;1837911;77;28162;-38
2023/04/16 04:20:20;;;;;;;0.42;0.40;;;;;;;25.43;35.35;99290.77;1824661;77;28159;-38
2023/04/16 04:23:09;;;;;;;1.07;0.50;;;;;;;25.44;35.36;99297.97;1822926;77;28323;-38
2023/04/16 04:25:58;;;;;;;0.50;0.50;;;;;;;25.44;35.33;99304.28;1808623;79;28335;-39
2023/04/16 04:28:47;;;;;;;0.50;0.33;;;;;;;25.42;35.33;99298.17;1848857;76;28183;-38
2023/04/16 04:31:36;;;;;;;0.20;0.20;;;;;;;25.46;35.27;99302.13;1861836;76;28206;-38
2023/04/16 04:34:25;;;;;;;0.37;0.37;;;;;;;25.45;35.28;99303.73;1814283;78;28374;-38
2023/04/16 04:37:15;;;;;;;0.30;0.30;;;;;;;25.44;35.28;99315.28;1793123;79;28450;-38
2023/04/16 04:40:05;;;;;;;0.37;0.37;;;;;;;25.43;35.27;99313.60;1807200;78;28377;-38
2023/04/16 04:42:55;;;;;;;0.42;0.42;;;;;;;25.44;35.25;99322.16;1805384;78;28477;-40
2023/04/16 04:45:44;;;;;;;0.30;0.30;;;;;;;25.45;35.20;99314.20;1792467;79;28301;-38
2023/04/16 04:48:33;;;;;;;0.25;0.25;;;;;;;25.45;35.19;99318.87;1821964;77;28266;-38
2023/04/16 04:51:21;;;;;;;0.30;0.30;;;;;;;25.45;35.18;99324.37;1836354;77;28160;-39
2023/04/16 04:54:09;;;;;;;0.33;0.33;;;;;;;25.44;35.16;99322.16;1836310;77;28236;-40
2023/04/16 04:56:58;;;;;;;0.40;0.40;;;;;;;25.42;35.20;99324.30;1833181;77;28197;-38
2023/04/16 04:59:46;;;;;;;0.28;0.28;;;;;;;25.44;35.17;99325.47;1835679;77;28220;-38
2023/04/16 05:02:35;;;;;;;0.50;0.50;;;;;;;25.45;35.24;99326.58;1853492;77;28159;-38
2023/04/16 05:05:23;;;;;;;0.70;0.70;;;;;;;25.40;34.65;99325.11;1823186;77;28334;-38
2023/04/16 05:08:11;;;;;;;0.75;0.75;;;;;;;25.43;33.97;99336.14;1828043;77;32149;-38
2023/04/16 05:11:00;;;;;;;0.68;0.68;;;;;;;25.41;33.72;99339.97;1830476;77;28190;-38
2023/04/16 05:13:49;;;;;;;0.60;0.60;;;;;;;25.34;33.20;99348.14;1819742;77;28259;-38
2023/04/16 05:16:38;;;;;;;0.55;0.55;;;;;;;25.33;33.75;99349.22;1841977;77;28214;-38
2023/04/16 05:19:26;;;;;;;0.60;0.60;;;;;;;25.31;34.13;99351.40;1825082;77;28261;-38
2023/04/16 05:22:17;;;;;;;0.62;0.62;;;;;;;25.30;34.24;99349.72;1825332;76;28271;-37
2023/04/16 05:25:05;;;;;;;0.53;0.53;;;;;;;25.30;34.39;99349.72;1839334;77;28270;-38
2023/04/16 05:27:53;;;;;;;0.50;0.50;;;;;;;25.31;34.40;99351.40;1784590;79;28458;-38
2023/04/16 05:30:41;;;;;;;0.50;0.50;;;;;;;25.32;34.40;99348.95;1797115;79;28377;-38
2023/04/16 05:33:29;;;;;;;0.95;0.55;;;;;;;25.32;34.50;99355.83;1831836;77;28294;-38
2023/04/16 05:36:18;;;;;;;0.60;0.60;;;;;;;25.30;34.58;99354.69;1837170;77;28259;-38
2023/04/16 05:39:06;;;;;;;0.53;0.53;;;;;;;25.31;34.66;99358.27;1830885;77;28499;-38
2023/04/16 05:41:54;;;;;;;0.42;0.42;;;;;;;25.29;34.69;99363.20;1832375;77;28223;-38
2023/04/16 05:44:43;;;;;;;0.40;0.40;;;;;;;25.30;34.61;99367.59;1847034;76;28309;-40
2023/04/16 05:47:32;;;;;;;1.77;0.40;;;;;;;25.29;34.79;99364.58;1857410;76;28191;-37
2023/04/16 05:50:20;;;;;;;0.30;0.30;;;;;;;25.28;34.74;99359.61;1846448;76;28273;-38
2023/04/16 05:53:09;;;;;;;0.40;0.35;;;;;;;25.27;34.88;99356.59;1849434;76;28283;-38
2023/04/16 05:55:58;;;;;;;0.30;0.30;;;;;;;25.27;34.83;99354.38;1844320;76;28254;-38
2023/04/16 05:58:46;;;;;;;0.50;0.50;;;;;;;25.23;34.79;99353.20;1847392;76;28353;-38
2023/04/16 06:01:35;;;;;;;1.30;0.40;;;;;;;25.22;34.64;99358.44;1867759;76;28200;-38
2023/04/16 06:04:23;;;;;;;0.40;0.40;;;;;;;25.17;35.17;99357.83;1861256;76;28680;-41
2023/04/16 06:07:11;;;;;;;0.40;0.40;;;;;;;25.14;35.20;99356.11;1838604;76;28284;-39
2023/04/16 06:09:59;;;;;;;0.30;0.30;;;;;;;25.13;35.25;99358.05;1843414;76;28250;-39
2023/04/16 06:12:48;;;;;;;0.88;0.60;;;;;;;25.13;35.59;99362.71;1854516;76;28133;-37
2023/04/16 06:15:36;;;;;;;0.40;0.40;;;;;;;25.14;35.53;99359.70;1817861;77;28174;-39
2023/04/16 06:18:25;;;;;;;0.65;0.50;;;;;;;25.15;35.67;99370.16;1845272;76;28211;-38
2023/04/16 06:21:13;;;;;;;0.70;0.70;;;;;;;25.12;35.99;99369.28;1856144;76;28229;-38
2023/04/16 06:24:02;;;;;;;0.35;0.35;;;;;;;25.08;36.31;99374.47;1837563;77;28263;-38
2023/04/16 06:26:50;;;;;;;0.40;0.40;;;;;;;25.05;36.45;99369.47;1871751;76;28713;-39
2023/04/16 06:29:39;;;;;;;0.40;0.40;;;;;;;25.03;36.55;99373.55;1813768;77;28734;-39
2023/04/16 06:32:27;;;;;;;1.70;0.53;;;;;;;25.03;36.48;99376.30;1833900;77;28267;-38
2023/04/16 06:35:18;;;;;;;0.25;0.25;;;;;;;25.02;36.54;99378.78;1849560;76;28287;-38
2023/04/16 06:38:06;;;;;;;0.60;0.28;;;;;;;25.01;36.56;99379.85;1845236;76;28192;-38
2023/04/16 06:40:55;;;;;;;0.30;0.30;;;;;;;24.98;36.58;99381.19;1841764;76;27761;-38
2023/04/16 06:43:43;;;;;;;1.00;0.50;;;;;;;24.95;36.63;99373.44;1853425;76;28342;-38
2023/04/16 06:46:32;;;;;;;0.80;0.47;;;;;;;24.94;36.68;99370.95;1851662;76;28181;-38
2023/04/16 06:49:21;;;;;;;0.30;0.30;;;;;;;24.93;36.66;99372.03;1813785;77;28233;-39
2023/04/16 06:52:09;;;;;;;0.50;0.40;;;;;;;24.92;36.68;99376.72;1827911;77;28285;-38
2023/04/16 06:54:58;;;;;;;0.65;0.60;;;;;;;24.91;36.70;99370.92;1837504;77;28251;-38
2023/04/16 06:57:47;;;;;;;0.50;0.50;;;;;;;24.90;36.68;99365.69;1813059;77;28264;-40
2023/04/16 07:00:35;;;;;;;0.40;0.30;;;;;;;24.91;36.67;99364.58;1846699;77;28202;-38
2023/04/16 07:03:23;;;;;;;0.37;0.37;;;;;;;24.90;36.62;99374.73;1843466;77;28137;-39
2023/04/16 07:06:12;;;;;;;0.30;0.30;;;;;;;24.91;36.70;99370.08;1826560;77;28232;-38
2023/04/16 07:09:00;;;;;;;0.40;0.33;;;;;;;24.90;36.63;99369.80;1825405;77;28258;-38
2023/04/16 07:11:48;;;;;;;0.30;0.30;;;;;;;24.87;36.67;99370.30;1814244;77;28380;-38
2023/04/16 07:14:37;;;;;;;0.50;0.50;;;;;;;24.88;36.65;99377.47;1832367;77;28356;-38
2023/04/16 07:17:25;;;;;;;0.30;0.30;;;;;;;24.88;36.58;99372.78;1834308;77;28219;-38
2023/04/16 07:20:14;;;;;;;0.40;0.40;;;;;;;24.89;36.57;99379.12;1825005;77;28145;-38
2023/04/16 07:23:02;;;;;;;0.50;0.50;;;;;;;24.89;36.59;99382.70;1815083;77;28440;-38
2023/04/16 07:25:51;;;;;;;1.10;0.60;;;;;;;24.85;36.63;99380.72;1842414;77;28143;-38
2023/04/16 07:28:39;;;;;;;0.40;0.40;;;;;;;24.86;36.64;99379.61;1801804;77;28273;-40
2023/04/16 07:31:28;;;;;;;0.37;0.37;;;;;;;24.81;36.62;99375.45;1831218;77;28241;-40
2023/04/16 07:34:16;;;;;;;0.40;0.40;;;;;;;24.84;36.61;99389.50;1836441;77;28277;-40
2023/04/16 07:37:04;;;;;;;0.45;0.45;;;;;;;24.83;36.65;99387.01;1826961;77;28147;-40
2023/04/16 07:39:53;;;;;;;0.30;0.30;;;;;;;24.83;36.61;99387.01;1826040;77;28263;-39
2023/04/16 07:42:43;;;;;;;0.50;0.50;;;;;;;24.84;36.51;99374.92;1814134;77;33096;-39
2023/04/16 07:45:31;;;;;;;0.75;0.40;;;;;;;24.82;36.46;99382.05;1830785;77;28314;-39
2023/04/16 07:48:21;;;;;;;0.60;0.40;;;;;;;24.82;36.49;99383.42;1860017;75;28233;-39
2023/04/16 07:51:09;;;;;;;0.35;0.35;;;;;;;24.82;36.50;99381.21;1786910;78;28371;-39
2023/04/16 07:53:58;;;;;;;0.30;0.30;;;;;;;24.83;36.51;99384.27;1824805;77;28227;-38
2023/04/16 07:56:46;;;;;;;0.40;0.40;;;;;;;24.80;36.55;99390.25;1830913;77;28724;-38
2023/04/16 07:59:35;;;;;;;0.20;0.20;;;;;;;24.83;36.53;99402.12;1823593;77;28302;-39
2023/04/16 08:02:23;;;;;;;0.45;0.45;;;;;;;24.83;36.49;99396.09;1836271;77;28393;-39
2023/04/16 08:05:12;;;;;;;0.50;0.50;;;;;;;24.82;36.52;99401.28;1830409;77;28329;-39
2023/04/16 08:08:01;;;;;;;0.30;0.30;;;;;;;24.83;36.48;99398.00;1841178;77;28316;-39
2023/04/16 08:10:54;;;;;;;0.37;0.37;;;;;;;24.82;36.52;99404.56;1836607;77;28130;-39
2023/04/16 08:13:40;;;;;;;0.30;0.30;;;;;;;24.80;36.56;99397.13;1824536;77;28223;-38
2023/04/16 08:16:28;;;;;;;0.23;0.23;;;;;;;24.81;36.58;99396.05;1857285;77;28212;-38
2023/04/16 08:19:16;;;;;;;0.40;0.40;;;;;;;24.82;36.56;99405.41;1834888;77;28272;-38
2023/04/16 08:22:05;;;;;;;0.40;0.33;;;;;;;24.83;36.59;99407.62;1843793;77;28309;-38
2023/04/16 08:24:53;;;;;;;0.30;0.30;;;;;;;24.82;36.53;99415.02;1839305;76;28206;-38
2023/04/16 08:27:42;;;;;;;0.28;0.28;;;;;;;24.82;36.55;99410.90;1791329;78;27937;-38
2023/04/16 08:30:30;;;;;;;0.30;0.30;;;;;;;24.81;36.51;99409.22;1823684;77;28218;-38
2023/04/16 08:33:18;;;;;;;0.50;0.50;;;;;;;24.79;36.56;99414.67;1836357;77;28243;-38
2023/04/16 08:36:07;;;;;;;0.28;0.28;;;;;;;24.78;36.55;99417.98;1824840;76;28247;-38
2023/04/16 08:38:55;;;;;;;0.30;0.30;;;;;;;24.79;36.53;99416.05;1833022;76;28219;-38
2023/04/16 08:41:46;;;;;;;1.27;0.37;;;;;;;24.81;36.47;99423.52;1810214;78;27853;-38
2023/04/16 08:44:36;;;;;;;0.40;0.40;;;;;;;24.81;36.45;99424.90;1780129;78;28473;-38
2023/04/16 08:47:27;;;;;;;0.30;0.30;;;;;;;24.79;36.46;99421.55;1849789;76;28140;-39
2023/04/16 08:50:17;;;;;;;0.50;0.50;;;;;;;24.80;36.41;99414.98;1826559;78;28396;-39
2023/04/16 08:53:07;;;;;;;2.20;0.30;;;;;;;24.81;36.43;99419.41;1833203;77;28302;-39
2023/04/16 08:55:58;;;;;;;0.40;0.40;;;;;;;24.82;36.39;99421.05;1872353;76;28379;-38
2023/04/16 08:58:49;;;;;;;0.35;0.30;;;;;;;24.80;36.41;99413.61;1840614;76;28184;-38
2023/04/16 09:01:40;;;;;;;0.30;0.30;;;;;;;24.80;36.40;99410.86;1806022;79;28200;-39
2023/04/16 09:04:29;;;;;;;1.02;0.40;;;;;;;24.83;36.33;99426.84;1826632;78;28290;-39
2023/04/16 09:07:19;;;;;;;0.30;0.30;;;;;;;24.81;36.33;99423.52;1872512;75;28288;-39
2023/04/16 09:10:09;;;;;;;0.23;0.23;;;;;;;24.79;36.30;99422.91;1843034;77;28265;-38
2023/04/16 09:12:59;;;;;;;0.30;0.30;;;;;;;24.80;36.27;99418.56;1862909;76;28137;-39
2023/04/16 09:15:49;;;;;;;0.53;0.53;;;;;;;24.79;36.23;99428.41;1791475;78;28382;-38
2023/04/16 09:18:37;;;;;;;0.33;0.33;;;;;;;24.77;36.19;99420.43;1860218;76;28148;-38
2023/04/16 09:21:26;;;;;;;0.40;0.40;;;;;;;24.78;36.10;99429.51;1855913;76;28233;-38
2023/04/16 09:24:15;;;;;;;0.40;0.40;;;;;;;24.79;36.12;99416.05;1836590;77;28170;-38
2023/04/16 09:27:04;;;;;;;0.30;0.30;;;;;;;24.80;36.08;99418.56;1866451;76;28336;-38
2023/04/16 09:29:53;;;;;;;0.40;0.40;;;;;;;24.80;36.06;99433.67;1840941;76;28188;-38
2023/04/16 09:32:41;;;;;;;0.40;0.40;;;;;;;24.79;36.04;99422.91;1867446;76;28214;-37
2023/04/16 09:35:32;;;;;;;0.37;0.37;;;;;;;24.80;35.95;99436.42;1865403;75;28204;-38
2023/04/16 09:38:20;;;;;;;0.37;0.37;;;;;;;24.78;35.97;99439.13;1855891;75;28325;-38
2023/04/16 09:41:09;;;;;;;0.23;0.23;;;;;;;24.77;35.90;99431.42;1859931;76;28296;-38
2023/04/16 09:44:00;;;;;;;0.40;0.40;;;;;;;24.78;35.89;99439.13;1859013;76;28274;-38
2023/04/16 09:46:50;;;;;;;0.30;0.30;;;;;;;24.79;35.84;99449.85;1863089;76;28184;-38
2023/04/16 09:49:45;;;;;;;0.40;0.40;;;;;;;24.76;35.82;99443.51;1823136;76;28759;-38
2023/04/16 09:52:38;;;;;;;0.23;0.23;;;;;;;24.77;35.67;99452.56;1803264;78;28291;-38
2023/04/16 09:55:30;;;;;;;0.60;0.60;;;;;;;24.76;35.71;99444.88;1829119;77;28181;-37
2023/04/16 09:58:23;;;;;;;0.70;0.70;;;;;;;24.76;35.36;99444.02;1840500;77;28255;-38
2023/04/16 10:01:13;;;;;;;0.40;0.40;;;;;;;24.80;34.89;99446.57;1823894;77;28157;-39
2023/04/16 10:04:01;;;;;;;0.60;0.30;;;;;;;24.78;35.21;99437.75;1843983;77;28166;-38
2023/04/16 10:07:04;;;;;;;0.43;0.43;;;;;;;24.76;35.31;99434.39;1814615;77;28299;-38
2023/04/16 10:09:54;;;;;;;0.65;0.65;;;;;;;24.79;35.19;99444.89;1826178;77;28213;-38
2023/04/16 10:12:43;;;;;;;0.50;0.50;;;;;;;24.80;34.37;99428.72;1836235;77;28141;-38
2023/04/16 10:15:31;;;;;;;0.30;0.30;;;;;;;24.76;34.98;99443.51;1825527;77;28233;-38
2023/04/16 10:18:21;;;;;;;0.45;0.45;;;;;;;24.74;35.18;99438.75;1841931;77;28220;-38
2023/04/16 10:21:14;;;;;;;0.50;0.50;;;;;;;24.75;35.21;99448.66;1824908;77;28244;-39
2023/04/16 10:24:03;;;;;;;0.37;0.37;;;;;;;24.74;35.27;99434.63;1826081;77;28157;-38
2023/04/16 10:26:55;;;;;;;1.07;0.50;;;;;;;24.74;35.23;99446.45;1814526;77;31356;-38
2023/04/16 10:29:45;;;;;;;0.50;0.42;;;;;;;24.74;35.19;99436.84;1826417;77;30300;-38
2023/04/16 10:32:33;;;;;;;0.40;0.40;;;;;;;24.72;35.19;99432.14;1829394;77;28221;-38
2023/04/16 10:35:22;;;;;;;0.20;0.20;;;;;;;24.72;35.12;99444.50;1836283;77;28188;-38
2023/04/16 10:38:27;;;;;;;0.47;0.47;;;;;;;24.73;35.09;99438.47;1825387;77;28126;-38
2023/04/16 10:41:16;;;;;;;0.43;0.43;;;;;;;24.76;35.04;99433.02;1826354;77;28174;-38
2023/04/16 10:44:11;;;;;;;0.47;0.47;;;;;;;24.73;34.93;99450.30;1814566;77;28270;-38
2023/04/16 10:47:00;;;;;;;0.50;0.50;;;;;;;24.73;34.90;99436.56;1829387;77;28240;-38
2023/04/16 10:49:48;;;;;;;0.35;0.35;;;;;;;24.73;34.90;99440.69;1824084;75;28201;-38
2023/04/16 10:52:37;;;;;;;0.40;0.40;;;;;;;24.74;34.48;99436.84;1821354;77;28175;-38
2023/04/16 10:55:25;;;;;;;0.60;0.60;;;;;;;24.76;34.34;99456.38;1821708;77;28199;-40
2023/04/16 10:58:34;;;;;;;0.30;0.30;;;;;;;24.76;33.68;99446.76;1845738;77;28214;-39
2023/04/16 11:01:34;;;;;;;0.37;0.37;;;;;;;24.76;33.77;99441.27;1825379;77;28185;-38
2023/04/16 11:04:29;;;;;;;0.30;0.30;;;;;;;24.71;34.17;99437.89;1842381;77;28184;-38
2023/04/16 11:07:23;;;;;;;0.30;0.30;;;;;;;24.68;34.30;99430.98;1821371;77;28159;-38
2023/04/16 11:10:14;;;;;;;0.40;0.40;;;;;;;24.68;34.46;99432.89;1821219;77;28317;-38
2023/04/16 11:13:04;;;;;;;0.37;0.37;;;;;;;24.68;34.27;99435.10;1825791;77;28156;-38
2023/04/16 11:15:54;;;;;;;0.33;0.33;;;;;;;24.68;34.33;99425.48;1822515;77;28150;-38
2023/04/16 11:18:44;;;;;;;0.30;0.30;;;;;;;24.68;34.22;99432.36;1821304;77;28145;-39
2023/04/16 11:21:32;;;;;;;0.35;0.35;;;;;;;24.68;34.27;99435.64;1821396;77;28257;-38
2023/04/16 11:24:21;;;;;;;0.30;0.30;;;;;;;24.67;34.31;99440.83;1825956;77;28193;-38
2023/04/16 11:27:10;;;;;;;0.30;0.30;;;;;;;24.68;34.32;99427.39;1821974;77;28163;-38
2023/04/16 11:30:04;;;;;;;0.40;0.40;;;;;;;24.69;34.29;99432.62;1821018;77;28181;-38
2023/04/16 11:32:52;;;;;;;0.53;0.53;;;;;;;24.67;34.29;99417.48;1821030;77;28191;-38
2023/04/16 11:35:42;;;;;;;0.47;0.47;;;;;;;24.67;34.29;99428.47;1845831;77;28189;-38
2023/04/16 11:38:36;;;;;;;0.30;0.30;;;;;;;24.66;34.34;99420.79;1821915;77;28258;-38
2023/04/16 11:41:24;;;;;;;0.30;0.30;;;;;;;24.59;34.38;99412.42;1837412;77;28172;-38
2023/04/16 11:44:24;;;;;;;0.20;0.20;;;;;;;24.66;34.32;99413.92;1811027;78;28179;-39
2023/04/16 11:47:12;;;;;;;1.00;0.30;;;;;;;24.66;34.28;99400.72;1828552;77;28145;-39
2023/04/16 11:50:19;;;;;;;0.50;0.50;;;;;;;24.63;34.31;99399.31;1822745;77;28297;-39
2023/04/16 11:53:08;;;;;;;1.00;0.30;;;;;;;24.64;34.27;99403.70;1832467;77;28297;-38
2023/04/16 11:55:56;;;;;;;0.42;0.42;;;;;;;24.66;34.24;99399.34;1810898;78;28221;-38
2023/04/16 11:58:45;;;;;;;0.45;0.45;;;;;;;24.63;34.23;99389.69;1830326;77;28146;-38
2023/04/16 12:01:38;;;;;;;0.50;0.50;;;;;;;24.64;34.16;99396.83;1826630;77;28082;-38
2023/04/16 12:04:28;;;;;;;0.50;0.50;;;;;;;24.66;34.11;99386.98;1822785;77;28149;-38
2023/04/16 12:07:16;;;;;;;0.30;0.30;;;;;;;24.66;34.25;99384.24;1821224;77;28268;-38
2023/04/16 12:10:09;;;;;;;0.40;0.40;;;;;;;24.66;34.16;99378.22;1821547;77;28226;-38
2023/04/16 12:13:11;;;;;;;0.33;0.33;;;;;;;24.59;34.12;99367.10;1826143;77;28278;-38
2023/04/16 12:16:00;;;;;;;0.60;0.40;;;;;;;24.65;34.10;99383.41;1810951;78;28230;-38
2023/04/16 12:19:01;;;;;;;1.20;0.42;;;;;;;24.64;34.19;99387.78;1821057;77;28250;-40
2023/04/16 12:21:50;;;;;;;0.30;0.30;;;;;;;24.65;34.21;99388.06;1821113;77;28279;-40
2023/04/16 12:24:39;;;;;;;0.50;0.50;;;;;;;24.62;34.24;99380.34;1822856;77;28304;-38
2023/04/16 12:27:52;;;;;;;0.50;0.50;;;;;;;24.64;34.22;99379.55;1826095;77;28252;-38
2023/04/16 12:30:43;;;;;;;0.30;0.30;;;;;;;24.62;34.11;99379.78;1828544;77;28340;-38
2023/04/16 12:33:32;;;;;;;0.30;0.30;;;;;;;24.60;34.06;99372.87;1811849;78;28344;-38
2023/04/16 12:36:21;;;;;;;0.45;0.45;;;;;;;24.60;34.07;99377.83;1811700;78;28221;-38
2023/04/16 12:39:10;;;;;;;0.53;0.53;;;;;;;24.61;33.90;99374.55;1824303;77;28182;-39
2023/04/16 12:41:58;;;;;;;0.33;0.33;;;;;;;24.61;33.83;99364.40;1824807;77;28227;-39
2023/04/16 12:44:46;;;;;;;0.40;0.40;;;;;;;24.61;33.75;99356.16;1821309;77;28171;-38
2023/04/16 12:47:35;;;;;;;0.47;0.47;;;;;;;24.61;33.65;99357.53;1821053;77;28190;-39
2023/04/16 12:50:23;;;;;;;1.80;0.57;;;;;;;24.63;33.50;99366.88;1825159;77;28354;-39
2023/04/16 12:53:12;;;;;;;0.40;0.40;;;;;;;24.64;33.65;99349.33;1802291;77;28420;-39
2023/04/16 12:56:00;;;;;;;0.72;0.33;;;;;;;24.64;33.78;99353.45;1779757;79;28216;-39
2023/04/16 12:58:54;;;;;;;0.40;0.33;;;;;;;24.63;33.86;99348.50;1799762;79;28216;-39
2023/04/16 13:01:38;;;;;;;0.40;0.40;;;;;;;24.63;33.87;99344.38;1791356;79;28146;-39
2023/04/16 13:04:27;;;;;;;0.40;0.40;;;;;;;24.62;33.83;99352.31;1822042;77;28186;-39
2023/04/16 13:07:16;;;;;;;0.40;0.40;;;;;;;24.63;33.88;99345.75;1799464;77;28156;-39
2023/04/16 13:10:05;;;;;;;0.50;0.50;;;;;;;24.63;33.87;99330.64;1824456;77;28138;-39
2023/04/16 13:12:53;;;;;;;0.45;0.45;;;;;;;24.65;33.80;99331.75;1817624;77;28226;-39
2023/04/16 13:15:41;;;;;;;0.50;0.50;;;;;;;24.64;33.82;99341.09;1806246;77;28220;-38
2023/04/16 13:18:30;;;;;;;0.57;0.40;;;;;;;24.64;33.87;99341.09;1809919;77;28220;-39